createdAt,value
2018-03-06T00:02:06.696Z,5.03
2018-03-06T00:04:40.429Z,5.02
2018-03-06T00:07:14.161Z,5.00
2018-03-06T00:09:47.797Z,4.98
2018-03-06T00:12:21.470Z,4.99
2018-03-06T00:14:55.157Z,4.97
2018-03-06T00:17:28.682Z,4.98
2018-03-06T00:20:02.319Z,5.03
2018-03-06T00:22:36.093Z,5.15
2018-03-06T00:25:09.714Z,5.18
2018-03-06T00:27:43.282Z,5.12
2018-03-06T00:30:16.925Z,5.15
2018-03-06T00:32:50.573Z,5.21
2018-03-06T00:35:24.225Z,5.15
2018-03-06T00:37:57.985Z,5.24
2018-03-06T00:40:31.569Z,5.24
2018-03-06T00:43:05.244Z,5.26
2018-03-06T00:45:38.821Z,5.30
2018-03-06T00:48:12.326Z,5.22
2018-03-06T00:50:45.874Z,5.25
2018-03-06T00:53:19.510Z,5.23
2018-03-06T00:55:53.356Z,5.24
2018-03-06T00:58:27.058Z,5.29
2018-03-06T01:01:00.721Z,5.25
2018-03-06T01:03:34.300Z,5.20
2018-03-06T01:06:07.949Z,5.18
2018-03-06T01:08:41.524Z,5.18
2018-03-06T01:11:15.180Z,5.19
2018-03-06T01:13:48.780Z,5.19
2018-03-06T01:16:22.261Z,5.28
2018-03-06T01:18:55.944Z,5.22
2018-03-06T01:21:29.568Z,5.17
2018-03-06T01:24:03.173Z,5.20
2018-03-06T01:26:36.757Z,5.16
2018-03-06T01:29:10.429Z,5.14
2018-03-06T01:31:44.047Z,5.13
2018-03-06T01:34:17.745Z,5.11
2018-03-06T01:37:05.977Z,5.08
2018-03-06T01:39:39.670Z,5.14
2018-03-06T01:42:13.307Z,5.17
2018-03-06T01:44:47.046Z,5.11
2018-03-06T01:47:20.741Z,5.10
2018-03-06T01:49:54.205Z,5.21
2018-03-06T01:52:27.817Z,5.24
2018-03-06T01:55:01.366Z,5.17
2018-03-06T01:57:34.999Z,5.11
2018-03-06T02:00:08.703Z,5.05
2018-03-06T02:02:42.405Z,5.08
2018-03-06T02:05:15.981Z,5.02
2018-03-06T02:07:49.705Z,4.98
2018-03-06T02:10:23.413Z,5.01
2018-03-06T02:12:56.992Z,5.04
2018-03-06T02:15:30.561Z,5.06
2018-03-06T02:18:04.248Z,4.96
2018-03-06T02:20:37.897Z,4.96
2018-03-06T02:23:11.477Z,4.96
2018-03-06T02:25:45.011Z,5.01
2018-03-06T02:28:18.697Z,5.09
2018-03-06T02:30:52.225Z,5.15
2018-03-06T02:33:25.814Z,5.17
2018-03-06T02:36:01.329Z,5.20
2018-03-06T02:38:34.890Z,5.24
2018-03-06T02:41:08.554Z,5.33
2018-03-06T02:43:42.049Z,5.43
2018-03-06T02:46:15.659Z,5.53
2018-03-06T02:48:49.259Z,5.60
2018-03-06T02:51:22.885Z,5.74
2018-03-06T02:53:56.661Z,5.74
2018-03-06T02:56:30.349Z,5.79
2018-03-06T02:59:03.993Z,5.85
2018-03-06T03:01:37.668Z,5.95
2018-03-06T03:04:11.274Z,5.98
2018-03-06T03:06:44.964Z,5.98
2018-03-06T03:09:18.833Z,5.97
2018-03-06T03:11:52.537Z,5.94
2018-03-06T03:14:26.086Z,5.95
2018-03-06T03:16:59.750Z,5.99
2018-03-06T03:19:33.295Z,5.94
2018-03-06T03:22:06.837Z,5.93
2018-03-06T03:24:40.525Z,5.86
2018-03-06T03:27:14.141Z,5.84
2018-03-06T03:29:47.824Z,5.86
2018-03-06T03:32:21.378Z,5.89
2018-03-06T03:34:54.965Z,5.87
2018-03-06T03:37:28.597Z,5.93
2018-03-06T03:40:02.246Z,5.96
2018-03-06T03:42:35.790Z,5.95
2018-03-06T03:45:09.305Z,6.01
2018-03-06T03:47:42.891Z,6.02
2018-03-06T03:50:16.489Z,5.99
2018-03-06T03:52:50.089Z,6.01
2018-03-06T03:55:23.735Z,5.97
2018-03-06T03:57:57.604Z,5.97
2018-03-06T04:00:31.433Z,6.06
2018-03-06T04:03:05.037Z,6.06
2018-03-06T04:05:38.818Z,6.03
2018-03-06T04:08:12.460Z,6.05
2018-03-06T04:10:46.058Z,6.05
2018-03-06T04:13:19.629Z,5.98
2018-03-06T04:15:53.425Z,6.01
2018-03-06T04:18:27.066Z,5.99
2018-03-06T04:21:00.693Z,5.99
2018-03-06T04:23:34.317Z,6.01
2018-03-06T04:26:07.965Z,5.99
2018-03-06T04:28:41.592Z,5.98
2018-03-06T04:31:15.321Z,6.00
2018-03-06T04:33:48.953Z,6.03
2018-03-06T04:36:22.529Z,6.05
2018-03-06T04:38:56.161Z,6.02
2018-03-06T04:41:29.793Z,6.06
2018-03-06T04:44:03.345Z,6.03
2018-03-06T04:46:36.898Z,6.03
2018-03-06T04:49:10.502Z,6.03
2018-03-06T04:51:44.101Z,6.03
2018-03-06T04:54:17.789Z,6.05
2018-03-06T04:56:51.367Z,6.04
2018-03-06T04:59:24.984Z,6.06
2018-03-06T05:01:58.772Z,6.10
2018-03-06T05:04:32.393Z,6.12
2018-03-06T05:07:05.993Z,6.15
2018-03-06T05:09:39.614Z,6.19
2018-03-06T05:12:13.197Z,6.16
2018-03-06T05:14:46.846Z,6.22
2018-03-06T05:17:20.538Z,6.18
2018-03-06T05:19:54.174Z,6.25
2018-03-06T05:22:28.353Z,6.22
2018-03-06T05:25:02.079Z,6.17
2018-03-06T05:27:35.673Z,6.19
2018-03-06T05:30:09.269Z,6.12
2018-03-06T05:32:42.896Z,6.20
2018-03-06T05:35:16.538Z,6.13
2018-03-06T05:37:50.153Z,6.15
2018-03-06T05:40:23.857Z,6.12
2018-03-06T05:42:57.465Z,6.01
2018-03-06T05:45:30.989Z,5.96
2018-03-06T05:48:04.665Z,5.94
2018-03-06T05:50:38.433Z,5.90
2018-03-06T05:53:12.216Z,5.91
2018-03-06T05:55:45.796Z,5.89
2018-03-06T05:58:19.359Z,5.91
2018-03-06T06:00:53.958Z,5.88
2018-03-06T06:03:27.518Z,5.87
2018-03-06T06:06:01.245Z,5.89
2018-03-06T06:08:34.912Z,5.88
2018-03-06T06:11:08.518Z,5.82
2018-03-06T06:13:42.084Z,5.81
2018-03-06T06:16:15.642Z,5.81
2018-03-06T06:18:49.317Z,5.79
2018-03-06T06:21:22.868Z,5.82
2018-03-06T06:23:56.318Z,5.80
2018-03-06T06:26:29.898Z,5.78
2018-03-06T06:29:03.781Z,5.77
2018-03-06T06:31:37.395Z,5.74
2018-03-06T06:34:11.045Z,5.79
2018-03-06T06:36:44.634Z,5.79
2018-03-06T06:39:18.356Z,5.78
2018-03-06T06:41:51.845Z,5.83
2018-03-06T06:44:25.531Z,5.86
2018-03-06T06:49:58.409Z,5.90
2018-03-06T06:52:31.926Z,5.96
2018-03-06T06:55:05.588Z,6.01
2018-03-06T06:57:39.276Z,6.04
2018-03-06T07:00:12.998Z,6.01
2018-03-06T07:02:46.607Z,6.11
2018-03-06T07:05:20.238Z,6.10
2018-03-06T07:07:53.920Z,6.10
2018-03-06T07:10:27.518Z,6.14
2018-03-06T07:13:01.083Z,6.17
2018-03-06T07:15:34.767Z,6.21
2018-03-06T07:18:08.403Z,6.27
2018-03-06T07:20:41.950Z,6.29
2018-03-06T07:23:15.461Z,6.31
2018-03-06T07:25:49.030Z,6.32
2018-03-06T07:28:22.570Z,6.35
2018-03-06T07:30:56.185Z,6.37
2018-03-06T07:33:29.813Z,6.42
2018-03-06T07:36:03.469Z,6.52
2018-03-06T07:38:37.109Z,6.62
2018-03-06T07:41:10.693Z,6.72
2018-03-06T07:43:44.278Z,6.83
2018-03-06T07:46:17.960Z,6.94
2018-03-06T07:48:51.637Z,7.18
2018-03-06T07:51:25.273Z,7.20
2018-03-06T07:53:58.934Z,7.15
2018-03-06T07:56:32.806Z,7.19
2018-03-06T07:59:06.479Z,7.15
2018-03-06T08:01:40.296Z,7.23
2018-03-06T08:04:13.836Z,7.23
2018-03-06T08:06:47.421Z,7.28
2018-03-06T08:09:21.136Z,7.39
2018-03-06T08:11:54.678Z,7.35
2018-03-06T08:14:28.280Z,7.56
2018-03-06T08:17:01.890Z,7.64
2018-03-06T08:19:35.526Z,7.76
2018-03-06T08:22:09.178Z,7.78
2018-03-06T08:24:42.777Z,7.76
2018-03-06T08:27:16.349Z,7.88
2018-03-06T08:29:50.018Z,7.84
2018-03-06T08:32:23.657Z,7.99
2018-03-06T08:34:57.293Z,8.02
2018-03-06T08:37:31.217Z,8.27
2018-03-06T08:40:04.721Z,8.48
2018-03-06T08:42:38.434Z,8.43
2018-03-06T08:45:12.086Z,8.58
2018-03-06T08:47:45.729Z,9.31
2018-03-06T08:50:19.373Z,10.10
2018-03-06T08:52:52.890Z,10.32
2018-03-06T08:55:26.469Z,10.03
2018-03-06T08:58:00.249Z,10.08
2018-03-06T09:00:34.035Z,10.19
2018-03-06T09:03:07.953Z,10.40
2018-03-06T09:05:41.640Z,10.66
2018-03-06T09:08:15.162Z,11.23
2018-03-06T09:10:48.669Z,11.66
2018-03-06T09:13:22.285Z,12.14
2018-03-06T09:15:55.986Z,12.85
2018-03-06T09:18:29.730Z,13.43
2018-03-06T09:21:03.257Z,13.64
2018-03-06T09:23:36.989Z,13.38
2018-03-06T09:26:10.558Z,13.72
2018-03-06T09:28:44.346Z,14.18
2018-03-06T09:31:17.977Z,13.20
2018-03-06T09:33:51.672Z,13.30
2018-03-06T09:36:25.210Z,13.33
2018-03-06T09:38:58.715Z,13.83
2018-03-06T09:41:32.574Z,13.60
2018-03-06T09:44:06.225Z,13.70
2018-03-06T09:46:39.853Z,13.73
2018-03-06T09:49:13.434Z,13.07
2018-03-06T09:51:47.097Z,12.63
2018-03-06T09:54:20.668Z,12.13
2018-03-06T09:56:54.424Z,12.29
2018-03-06T09:59:28.156Z,12.04
2018-03-06T10:02:01.786Z,11.87
2018-03-06T10:04:35.350Z,11.83
2018-03-06T10:07:08.985Z,12.07
2018-03-06T10:09:42.661Z,11.78
2018-03-06T10:12:16.297Z,11.78
2018-03-06T10:14:49.825Z,11.45
2018-03-06T10:17:23.590Z,11.59
2018-03-06T10:19:57.225Z,11.89
2018-03-06T10:22:30.876Z,11.70
2018-03-06T10:25:04.670Z,11.59
2018-03-06T10:27:38.493Z,11.62
2018-03-06T10:30:12.023Z,12.02
2018-03-06T10:32:45.837Z,12.19
2018-03-06T10:35:19.780Z,12.25
2018-03-06T10:37:53.494Z,11.77
2018-03-06T10:40:27.186Z,11.71
2018-03-06T10:43:00.877Z,12.14
2018-03-06T10:45:34.470Z,11.56
2018-03-06T10:48:08.089Z,11.93
2018-03-06T10:50:42.137Z,12.50
2018-03-06T10:53:15.824Z,12.68
2018-03-06T10:55:49.422Z,12.79
2018-03-06T10:58:22.998Z,12.62
2018-03-06T11:00:56.777Z,12.84
2018-03-06T11:03:30.386Z,13.16
2018-03-06T11:06:04.166Z,13.11
2018-03-06T11:08:37.767Z,12.88
2018-03-06T11:11:11.329Z,13.31
2018-03-06T11:13:45.128Z,13.07
2018-03-06T11:16:18.874Z,12.40
2018-03-06T11:18:52.530Z,13.02
2018-03-06T11:21:26.190Z,13.02
2018-03-06T11:23:59.738Z,13.48
2018-03-06T11:26:33.297Z,13.24
2018-03-06T11:29:07.017Z,12.93
2018-03-06T11:31:40.678Z,12.99
2018-03-06T11:34:14.322Z,13.41
2018-03-06T11:36:52.890Z,13.02
2018-03-06T11:39:26.534Z,13.28
2018-03-06T11:42:00.242Z,12.99
2018-03-06T11:44:33.924Z,12.88
2018-03-06T11:47:07.789Z,13.13
2018-03-06T11:49:41.335Z,13.05
2018-03-06T11:52:14.964Z,12.82
2018-03-06T11:54:49.115Z,13.50
2018-03-06T11:57:22.727Z,13.61
2018-03-06T11:59:56.424Z,13.22
2018-03-06T12:02:30.289Z,13.04
2018-03-06T12:05:03.949Z,13.08
2018-03-06T12:07:37.585Z,13.15
2018-03-06T12:10:11.445Z,13.05
2018-03-06T12:12:44.998Z,13.45
2018-03-06T12:15:18.678Z,13.64
2018-03-06T12:17:52.310Z,12.96
2018-03-06T12:20:25.886Z,13.13
2018-03-06T12:22:59.667Z,13.05
2018-03-06T12:25:33.232Z,13.79
2018-03-06T12:28:06.846Z,13.78
2018-03-06T12:30:40.446Z,13.62
2018-03-06T12:33:14.032Z,13.56
2018-03-06T12:35:47.782Z,13.59
2018-03-06T12:38:21.438Z,13.24
2018-03-06T12:40:55.113Z,12.99
2018-03-06T12:43:28.696Z,13.24
2018-03-06T12:46:02.271Z,12.83
2018-03-06T12:48:35.836Z,12.99
2018-03-06T12:51:09.431Z,12.90
2018-03-06T12:53:43.036Z,13.14
2018-03-06T12:56:16.589Z,13.14
2018-03-06T12:58:50.165Z,12.86
2018-03-06T13:01:23.842Z,13.19
2018-03-06T13:03:57.378Z,13.13
2018-03-06T13:06:31.021Z,13.15
2018-03-06T13:09:04.822Z,13.03
2018-03-06T13:11:38.545Z,13.09
2018-03-06T13:14:12.306Z,13.18
2018-03-06T13:16:45.991Z,13.74
2018-03-06T13:19:19.703Z,14.01
2018-03-06T13:21:53.418Z,13.94
2018-03-06T13:24:27.340Z,13.83
2018-03-06T13:27:01.035Z,13.24
2018-03-06T13:29:34.726Z,13.46
2018-03-06T13:32:08.495Z,13.31
2018-03-06T13:34:42.189Z,13.30
2018-03-06T13:37:15.943Z,13.44
2018-03-06T13:39:49.523Z,13.28
2018-03-06T13:42:23.242Z,13.49
2018-03-06T13:44:56.889Z,13.38
2018-03-06T13:47:30.723Z,13.31
2018-03-06T13:50:04.346Z,13.58
2018-03-06T13:52:38.119Z,13.85
2018-03-06T13:55:11.670Z,13.91
2018-03-06T13:57:45.473Z,13.96
2018-03-06T14:00:19.278Z,14.24
2018-03-06T14:02:52.971Z,13.92
2018-03-06T14:05:26.576Z,13.73
2018-03-06T14:08:00.319Z,13.81
2018-03-06T14:10:34.015Z,13.98
2018-03-06T14:13:07.785Z,13.24
2018-03-06T14:15:41.470Z,13.08
2018-03-06T14:18:15.143Z,13.07
2018-03-06T14:20:48.794Z,13.36
2018-03-06T14:23:22.482Z,13.27
2018-03-06T14:25:56.148Z,12.98
2018-03-06T14:28:29.993Z,13.02
2018-03-06T14:31:03.716Z,13.03
2018-03-06T14:33:37.326Z,13.10
2018-03-06T14:36:11.126Z,13.05
2018-03-06T14:38:44.890Z,13.17
2018-03-06T14:41:18.800Z,13.15
2018-03-06T14:43:52.562Z,13.06
2018-03-06T14:46:26.250Z,12.88
2018-03-06T14:48:59.892Z,12.99
2018-03-06T14:51:33.678Z,13.03
2018-03-06T14:54:07.363Z,13.08
2018-03-06T14:56:41.054Z,13.05
2018-03-06T14:59:14.659Z,13.22
2018-03-06T15:01:48.392Z,13.24
2018-03-06T15:04:21.934Z,13.12
2018-03-06T15:06:55.674Z,13.01
2018-03-06T15:09:29.376Z,12.88
2018-03-06T15:12:03.094Z,12.65
2018-03-06T15:14:36.795Z,12.77
2018-03-06T15:17:10.599Z,12.71
2018-03-06T15:19:44.262Z,12.83
2018-03-06T15:22:17.850Z,12.86
2018-03-06T15:24:51.578Z,12.55
2018-03-06T15:27:25.262Z,12.43
2018-03-06T15:29:59.010Z,12.47
2018-03-06T15:32:32.751Z,12.37
2018-03-06T15:35:06.423Z,12.53
2018-03-06T15:37:40.083Z,12.51
2018-03-06T15:40:13.803Z,12.33
2018-03-06T15:42:47.454Z,12.28
2018-03-06T15:45:20.999Z,12.34
2018-03-06T15:47:54.782Z,12.32
2018-03-06T15:50:28.442Z,12.31
2018-03-06T15:53:02.014Z,12.28
2018-03-06T15:55:35.723Z,12.21
2018-03-06T15:58:09.270Z,12.07
2018-03-06T16:00:42.954Z,11.97
2018-03-06T16:03:16.650Z,12.05
2018-03-06T16:05:50.214Z,12.02
2018-03-06T16:08:23.928Z,11.97
2018-03-06T16:10:57.650Z,11.74
2018-03-06T16:13:31.266Z,11.84
2018-03-06T16:16:05.007Z,11.69
2018-03-06T16:18:38.638Z,11.74
2018-03-06T16:21:12.380Z,11.71
2018-03-06T16:23:46.008Z,11.57
2018-03-06T16:26:19.783Z,11.29
2018-03-06T16:28:53.316Z,11.22
2018-03-06T16:31:27.042Z,11.19
2018-03-06T16:34:00.778Z,11.09
2018-03-06T16:36:34.428Z,11.11
2018-03-06T16:39:07.976Z,11.11
2018-03-06T16:41:41.804Z,10.91
2018-03-06T16:44:15.414Z,10.88
2018-03-06T16:46:49.003Z,10.82
2018-03-06T16:49:22.711Z,10.78
2018-03-06T16:51:56.407Z,10.66
2018-03-06T16:54:30.919Z,10.58
2018-03-06T16:57:04.723Z,10.48
2018-03-06T16:59:38.382Z,10.36
2018-03-06T17:02:12.207Z,10.23
2018-03-06T17:04:46.124Z,10.14
2018-03-06T17:07:19.834Z,10.03
2018-03-06T17:09:53.362Z,9.98
2018-03-06T17:12:27.007Z,9.91
2018-03-06T17:15:00.604Z,9.81
2018-03-06T17:17:34.172Z,9.70
2018-03-06T17:20:08.238Z,9.55
2018-03-06T17:22:41.850Z,9.49
2018-03-06T17:25:15.414Z,9.40
2018-03-06T17:27:49.017Z,9.31
2018-03-06T17:30:22.603Z,9.28
2018-03-06T17:32:56.287Z,9.29
2018-03-06T17:35:29.960Z,9.26
2018-03-06T17:38:03.722Z,9.26
2018-03-06T17:40:37.272Z,9.26
2018-03-06T17:43:10.905Z,9.22
2018-03-06T17:45:44.527Z,9.19
2018-03-06T17:48:18.170Z,9.17
2018-03-06T17:50:51.966Z,9.12
2018-03-06T17:53:25.570Z,9.10
2018-03-06T17:55:59.270Z,9.05
2018-03-06T17:58:33.062Z,8.97
2018-03-06T18:01:06.847Z,8.85
2018-03-06T18:03:40.425Z,8.78
2018-03-06T18:06:14.087Z,8.66
2018-03-06T18:08:47.783Z,8.57
2018-03-06T18:11:21.565Z,8.51
2018-03-06T18:13:55.351Z,8.48
2018-03-06T18:16:28.945Z,8.46
2018-03-06T18:19:02.495Z,8.50
2018-03-06T18:21:36.147Z,8.53
2018-03-06T18:24:09.775Z,8.54
2018-03-06T18:26:43.419Z,8.57
2018-03-06T18:29:17.209Z,8.62
2018-03-06T18:31:51.342Z,8.66
2018-03-06T18:34:25.103Z,8.65
2018-03-06T18:36:58.861Z,8.68
2018-03-06T18:39:32.566Z,8.68
2018-03-06T18:42:06.140Z,8.70
2018-03-06T18:44:39.846Z,8.71
2018-03-06T18:47:13.455Z,8.74
2018-03-06T18:49:59.097Z,8.75
2018-03-06T18:52:32.685Z,8.75
2018-03-06T18:55:06.284Z,8.74
2018-03-06T18:57:39.999Z,8.73
2018-03-06T19:07:06.669Z,8.70
2018-03-06T19:09:40.324Z,8.70
2018-03-06T19:12:14.114Z,8.68
2018-03-06T19:14:48.346Z,8.65
2018-03-06T19:17:21.961Z,8.64
2018-03-06T19:19:55.709Z,8.63
2018-03-06T19:22:29.525Z,8.61
2018-03-06T19:25:03.091Z,8.61
2018-03-06T19:27:36.601Z,8.59
2018-03-06T19:30:10.157Z,8.58
2018-03-06T19:32:43.805Z,8.59
2018-03-06T19:35:17.481Z,8.60
2018-03-06T19:37:51.085Z,8.58
2018-03-06T19:40:24.657Z,8.57
2018-03-06T19:42:58.302Z,8.53
2018-03-06T19:45:31.906Z,8.48
2018-03-06T19:48:05.513Z,8.47
2018-03-06T19:50:39.132Z,8.47
2018-03-06T19:53:12.690Z,8.45
2018-03-06T19:55:46.282Z,8.44
2018-03-06T19:58:19.858Z,8.46
2018-03-06T20:00:53.525Z,8.48
2018-03-06T20:03:27.245Z,8.47
2018-03-06T20:06:00.993Z,8.45
2018-03-06T20:08:34.600Z,8.45
2018-03-06T20:11:08.311Z,8.43
2018-03-06T20:13:41.889Z,8.38
2018-03-06T20:16:15.502Z,8.37
2018-03-06T20:18:54.714Z,8.36
2018-03-06T20:21:28.390Z,8.40
2018-03-06T20:24:07.651Z,8.42
2018-03-06T20:26:41.357Z,8.37
2018-03-06T20:29:15.012Z,8.36
2018-03-06T20:31:54.290Z,8.32
2018-03-06T20:34:27.965Z,8.33
2018-03-06T20:37:01.629Z,8.33
2018-03-06T20:39:40.908Z,8.29
2018-03-06T20:42:14.608Z,8.28
2018-03-06T20:44:48.726Z,8.24
2018-03-06T20:47:22.370Z,8.22
2018-03-06T20:49:55.962Z,8.20
2018-03-06T20:52:29.645Z,8.21
2018-03-06T20:55:05.185Z,8.19
2018-03-06T20:57:38.914Z,8.16
2018-03-06T21:00:12.544Z,8.17
2018-03-06T21:02:46.118Z,8.12
2018-03-06T21:05:19.637Z,8.12
2018-03-06T21:07:53.258Z,8.05
2018-03-06T21:10:26.842Z,8.02
2018-03-06T21:13:01.620Z,7.98
2018-03-06T21:15:35.226Z,7.91
2018-03-06T21:18:08.880Z,7.85
2018-03-06T21:20:42.448Z,7.79
2018-03-06T21:23:16.229Z,7.67
